sensor_id;sensor_type;location;lat;lon;timestamp;P1;durP1;ratioP1;P2;durP2;ratioP2
69837;SDS011;57135;51.992;4.476;2023-08-07T00:01:47;6.67;;;4.75;;
69837;SDS011;57135;51.992;4.476;2023-08-07T00:04:12;6.38;;;4.55;;
69837;SDS011;57135;51.992;4.476;2023-08-07T00:06:37;6.17;;;4.58;;
69837;SDS011;57135;51.992;4.476;2023-08-07T00:09:03;5.91;;;4.48;;
69837;SDS011;57135;51.992;4.476;2023-08-07T00:11:34;5.91;;;4.40;;
69837;SDS011;57135;51.992;4.476;2023-08-07T00:14:02;5.58;;;4.14;;
69837;SDS011;57135;51.992;4.476;2023-08-07T00:16:28;4.56;;;3.51;;
69837;SDS011;57135;51.992;4.476;2023-08-07T00:18:53;4.31;;;3.38;;
69837;SDS011;57135;51.992;4.476;2023-08-07T00:21:21;3.93;;;3.21;;
69837;SDS011;57135;51.992;4.476;2023-08-07T00:23:48;3.58;;;3.05;;
69837;SDS011;57135;51.992;4.476;2023-08-07T00:26:14;3.57;;;3.10;;
69837;SDS011;57135;51.992;4.476;2023-08-07T00:28:40;3.68;;;3.18;;
69837;SDS011;57135;51.992;4.476;2023-08-07T00:31:05;4.09;;;3.47;;
69837;SDS011;57135;51.992;4.476;2023-08-07T00:33:31;4.85;;;4.10;;
69837;SDS011;57135;51.992;4.476;2023-08-07T00:35:56;5.09;;;4.20;;
69837;SDS011;57135;51.992;4.476;2023-08-07T00:38:22;5.59;;;4.60;;
69837;SDS011;57135;51.992;4.476;2023-08-07T00:40:53;5.45;;;4.48;;
69837;SDS011;57135;51.992;4.476;2023-08-07T00:43:19;5.41;;;4.44;;
69837;SDS011;57135;51.992;4.476;2023-08-07T00:45:45;5.51;;;4.50;;
69837;SDS011;57135;51.992;4.476;2023-08-07T00:48:24;5.78;;;4.62;;
69837;SDS011;57135;51.992;4.476;2023-08-07T00:50:50;5.11;;;4.10;;
69837;SDS011;57135;51.992;4.476;2023-08-07T00:53:16;5.58;;;4.49;;
69837;SDS011;57135;51.992;4.476;2023-08-07T00:55:42;5.59;;;4.47;;
69837;SDS011;57135;51.992;4.476;2023-08-07T00:58:08;5.86;;;4.49;;
69837;SDS011;57135;51.992;4.476;2023-08-07T01:00:34;5.85;;;4.49;;
69837;SDS011;57135;51.992;4.476;2023-08-07T01:02:59;5.75;;;4.57;;
69837;SDS011;57135;51.992;4.476;2023-08-07T01:05:29;5.64;;;4.57;;
69837;SDS011;57135;51.992;4.476;2023-08-07T01:07:55;5.54;;;4.48;;
69837;SDS011;57135;51.992;4.476;2023-08-07T01:10:40;5.78;;;4.58;;
69837;SDS011;57135;51.992;4.476;2023-08-07T01:13:45;5.90;;;4.69;;
69837;SDS011;57135;51.992;4.476;2023-08-07T01:16:26;5.68;;;4.45;;
69837;SDS011;57135;51.992;4.476;2023-08-07T01:19:05;5.76;;;4.51;;
69837;SDS011;57135;51.992;4.476;2023-08-07T01:21:45;5.85;;;4.60;;
69837;SDS011;57135;51.992;4.476;2023-08-07T01:24:13;5.52;;;4.41;;
69837;SDS011;57135;51.992;4.476;2023-08-07T01:26:39;5.40;;;4.39;;
69837;SDS011;57135;51.992;4.476;2023-08-07T01:31:47;5.34;;;4.36;;
69837;SDS011;57135;51.992;4.476;2023-08-07T01:34:16;4.90;;;4.00;;
69837;SDS011;57135;51.992;4.476;2023-08-07T01:36:43;6.13;;;4.83;;
69837;SDS011;57135;51.992;4.476;2023-08-07T01:39:11;5.54;;;4.34;;
69837;SDS011;57135;51.992;4.476;2023-08-07T01:41:38;6.22;;;4.81;;
69837;SDS011;57135;51.992;4.476;2023-08-07T01:44:06;5.94;;;4.60;;
69837;SDS011;57135;51.992;4.476;2023-08-07T01:46:32;5.50;;;4.41;;
69837;SDS011;57135;51.992;4.476;2023-08-07T01:48:57;5.33;;;4.24;;
69837;SDS011;57135;51.992;4.476;2023-08-07T01:51:23;5.18;;;4.09;;
69837;SDS011;57135;51.992;4.476;2023-08-07T01:53:49;5.36;;;4.27;;
69837;SDS011;57135;51.992;4.476;2023-08-07T01:56:14;4.56;;;3.72;;
69837;SDS011;57135;51.992;4.476;2023-08-07T01:58:39;5.17;;;4.16;;
69837;SDS011;57135;51.992;4.476;2023-08-07T02:01:05;5.54;;;4.33;;
69837;SDS011;57135;51.992;4.476;2023-08-07T02:03:30;5.96;;;4.64;;
69837;SDS011;57135;51.992;4.476;2023-08-07T02:05:56;5.61;;;4.39;;
69837;SDS011;57135;51.992;4.476;2023-08-07T02:08:21;5.42;;;4.36;;
69837;SDS011;57135;51.992;4.476;2023-08-07T02:10:47;5.13;;;4.13;;
69837;SDS011;57135;51.992;4.476;2023-08-07T02:13:12;5.21;;;4.25;;
69837;SDS011;57135;51.992;4.476;2023-08-07T02:15:38;4.74;;;3.88;;
69837;SDS011;57135;51.992;4.476;2023-08-07T02:18:03;4.47;;;3.75;;
69837;SDS011;57135;51.992;4.476;2023-08-07T02:20:29;4.42;;;3.64;;
69837;SDS011;57135;51.992;4.476;2023-08-07T02:22:54;5.76;;;4.60;;
69837;SDS011;57135;51.992;4.476;2023-08-07T02:25:20;5.42;;;4.27;;
69837;SDS011;57135;51.992;4.476;2023-08-07T02:28:12;5.27;;;4.27;;
69837;SDS011;57135;51.992;4.476;2023-08-07T02:30:37;5.22;;;4.25;;
69837;SDS011;57135;51.992;4.476;2023-08-07T02:33:05;5.03;;;4.14;;
69837;SDS011;57135;51.992;4.476;2023-08-07T02:35:31;5.11;;;4.19;;
69837;SDS011;57135;51.992;4.476;2023-08-07T02:37:56;5.05;;;4.10;;
69837;SDS011;57135;51.992;4.476;2023-08-07T02:40:22;5.47;;;4.36;;
69837;SDS011;57135;51.992;4.476;2023-08-07T02:42:50;5.80;;;4.60;;
69837;SDS011;57135;51.992;4.476;2023-08-07T02:45:16;5.18;;;4.20;;
69837;SDS011;57135;51.992;4.476;2023-08-07T02:47:42;4.97;;;4.05;;
69837;SDS011;57135;51.992;4.476;2023-08-07T02:50:07;5.16;;;4.19;;
69837;SDS011;57135;51.992;4.476;2023-08-07T02:52:33;4.91;;;4.03;;
69837;SDS011;57135;51.992;4.476;2023-08-07T02:54:59;4.99;;;4.11;;
69837;SDS011;57135;51.992;4.476;2023-08-07T02:57:24;3.97;;;3.28;;
69837;SDS011;57135;51.992;4.476;2023-08-07T02:59:52;3.87;;;3.22;;
69837;SDS011;57135;51.992;4.476;2023-08-07T03:02:33;4.78;;;3.95;;
69837;SDS011;57135;51.992;4.476;2023-08-07T03:04:58;4.67;;;3.88;;
69837;SDS011;57135;51.992;4.476;2023-08-07T03:07:24;4.60;;;3.87;;
69837;SDS011;57135;51.992;4.476;2023-08-07T03:09:50;5.45;;;4.47;;
69837;SDS011;57135;51.992;4.476;2023-08-07T03:12:15;5.94;;;4.78;;
69837;SDS011;57135;51.992;4.476;2023-08-07T03:14:41;5.81;;;4.57;;
69837;SDS011;57135;51.992;4.476;2023-08-07T03:17:09;5.54;;;4.32;;
69837;SDS011;57135;51.992;4.476;2023-08-07T03:19:34;5.31;;;4.15;;
69837;SDS011;57135;51.992;4.476;2023-08-07T03:22:00;4.07;;;3.26;;
69837;SDS011;57135;51.992;4.476;2023-08-07T03:24:26;3.46;;;2.85;;
69837;SDS011;57135;51.992;4.476;2023-08-07T03:26:51;3.56;;;2.90;;
69837;SDS011;57135;51.992;4.476;2023-08-07T03:29:16;3.91;;;3.19;;
69837;SDS011;57135;51.992;4.476;2023-08-07T03:31:42;3.19;;;2.64;;
69837;SDS011;57135;51.992;4.476;2023-08-07T03:34:07;3.65;;;3.01;;
69837;SDS011;57135;51.992;4.476;2023-08-07T03:36:33;3.59;;;2.98;;
69837;SDS011;57135;51.992;4.476;2023-08-07T03:39:01;3.87;;;3.19;;
69837;SDS011;57135;51.992;4.476;2023-08-07T03:41:38;4.03;;;3.31;;
69837;SDS011;57135;51.992;4.476;2023-08-07T03:44:04;4.24;;;3.42;;
69837;SDS011;57135;51.992;4.476;2023-08-07T03:46:30;4.50;;;3.66;;
69837;SDS011;57135;51.992;4.476;2023-08-07T03:48:55;4.18;;;3.44;;
69837;SDS011;57135;51.992;4.476;2023-08-07T03:51:21;4.46;;;3.67;;
69837;SDS011;57135;51.992;4.476;2023-08-07T03:53:47;4.34;;;3.55;;
69837;SDS011;57135;51.992;4.476;2023-08-07T03:56:17;4.23;;;3.48;;
69837;SDS011;57135;51.992;4.476;2023-08-07T03:58:43;4.20;;;3.46;;
69837;SDS011;57135;51.992;4.476;2023-08-07T04:01:09;5.05;;;4.04;;
69837;SDS011;57135;51.992;4.476;2023-08-07T04:03:42;5.06;;;3.95;;
69837;SDS011;57135;51.992;4.476;2023-08-07T04:06:10;4.93;;;3.83;;
69837;SDS011;57135;51.992;4.476;2023-08-07T04:08:40;5.01;;;3.86;;
69837;SDS011;57135;51.992;4.476;2023-08-07T04:11:33;5.09;;;3.99;;
69837;SDS011;57135;51.992;4.476;2023-08-07T04:14:14;5.47;;;4.33;;
69837;SDS011;57135;51.992;4.476;2023-08-07T04:16:43;5.65;;;4.38;;
69837;SDS011;57135;51.992;4.476;2023-08-07T04:19:08;6.07;;;4.66;;
69837;SDS011;57135;51.992;4.476;2023-08-07T04:21:34;6.24;;;4.74;;
69837;SDS011;57135;51.992;4.476;2023-08-07T04:23:59;5.38;;;4.11;;
69837;SDS011;57135;51.992;4.476;2023-08-07T04:26:35;5.16;;;4.00;;
69837;SDS011;57135;51.992;4.476;2023-08-07T04:29:00;5.70;;;4.29;;
69837;SDS011;57135;51.992;4.476;2023-08-07T04:31:31;4.98;;;3.81;;
69837;SDS011;57135;51.992;4.476;2023-08-07T04:33:57;4.72;;;3.76;;
69837;SDS011;57135;51.992;4.476;2023-08-07T04:36:23;4.51;;;3.57;;
69837;SDS011;57135;51.992;4.476;2023-08-07T04:38:49;4.62;;;3.67;;
69837;SDS011;57135;51.992;4.476;2023-08-07T04:41:15;5.08;;;3.99;;
69837;SDS011;57135;51.992;4.476;2023-08-07T04:43:43;4.81;;;3.73;;
69837;SDS011;57135;51.992;4.476;2023-08-07T04:46:09;4.44;;;3.47;;
69837;SDS011;57135;51.992;4.476;2023-08-07T04:48:35;4.40;;;3.39;;
69837;SDS011;57135;51.992;4.476;2023-08-07T04:51:07;5.03;;;3.79;;
69837;SDS011;57135;51.992;4.476;2023-08-07T04:53:32;4.86;;;3.66;;
69837;SDS011;57135;51.992;4.476;2023-08-07T04:56:01;4.52;;;3.48;;
69837;SDS011;57135;51.992;4.476;2023-08-07T04:58:27;4.60;;;3.53;;
69837;SDS011;57135;51.992;4.476;2023-08-07T05:00:56;4.85;;;3.72;;
69837;SDS011;57135;51.992;4.476;2023-08-07T05:03:22;4.60;;;3.55;;
69837;SDS011;57135;51.992;4.476;2023-08-07T05:05:48;5.14;;;3.96;;
69837;SDS011;57135;51.992;4.476;2023-08-07T05:08:13;4.75;;;3.60;;
69837;SDS011;57135;51.992;4.476;2023-08-07T05:10:38;4.74;;;3.63;;
69837;SDS011;57135;51.992;4.476;2023-08-07T05:13:04;4.58;;;3.59;;
69837;SDS011;57135;51.992;4.476;2023-08-07T05:15:29;4.92;;;3.73;;
69837;SDS011;57135;51.992;4.476;2023-08-07T05:17:56;4.73;;;3.57;;
69837;SDS011;57135;51.992;4.476;2023-08-07T05:20:21;4.52;;;3.47;;
69837;SDS011;57135;51.992;4.476;2023-08-07T05:22:47;4.53;;;3.44;;
69837;SDS011;57135;51.992;4.476;2023-08-07T05:25:12;4.61;;;3.55;;
69837;SDS011;57135;51.992;4.476;2023-08-07T05:27:44;4.51;;;3.49;;
69837;SDS011;57135;51.992;4.476;2023-08-07T05:30:10;5.17;;;3.89;;
69837;SDS011;57135;51.992;4.476;2023-08-07T05:32:36;4.90;;;3.64;;
69837;SDS011;57135;51.992;4.476;2023-08-07T05:35:05;5.29;;;3.92;;
69837;SDS011;57135;51.992;4.476;2023-08-07T05:37:32;5.22;;;3.93;;
69837;SDS011;57135;51.992;4.476;2023-08-07T05:40:00;4.95;;;3.82;;
69837;SDS011;57135;51.992;4.476;2023-08-07T05:42:29;4.85;;;3.68;;
69837;SDS011;57135;51.992;4.476;2023-08-07T05:45:04;5.06;;;3.79;;
69837;SDS011;57135;51.992;4.476;2023-08-07T05:47:32;5.12;;;3.73;;
69837;SDS011;57135;51.992;4.476;2023-08-07T05:50:04;5.83;;;4.30;;
69837;SDS011;57135;51.992;4.476;2023-08-07T05:52:29;5.70;;;4.20;;
69837;SDS011;57135;51.992;4.476;2023-08-07T05:54:55;5.95;;;4.33;;
69837;SDS011;57135;51.992;4.476;2023-08-07T05:57:20;5.57;;;4.08;;
69837;SDS011;57135;51.992;4.476;2023-08-07T05:59:46;5.17;;;3.84;;
69837;SDS011;57135;51.992;4.476;2023-08-07T06:02:17;5.35;;;4.04;;
69837;SDS011;57135;51.992;4.476;2023-08-07T06:04:43;4.72;;;3.60;;
69837;SDS011;57135;51.992;4.476;2023-08-07T06:07:08;5.43;;;4.07;;
69837;SDS011;57135;51.992;4.476;2023-08-07T06:09:34;5.02;;;3.76;;
69837;SDS011;57135;51.992;4.476;2023-08-07T06:12:00;4.65;;;3.56;;
69837;SDS011;57135;51.992;4.476;2023-08-07T06:14:26;5.13;;;3.86;;
69837;SDS011;57135;51.992;4.476;2023-08-07T06:16:52;5.29;;;4.08;;
69837;SDS011;57135;51.992;4.476;2023-08-07T06:19:17;5.29;;;4.13;;
69837;SDS011;57135;51.992;4.476;2023-08-07T06:21:43;4.36;;;3.50;;
69837;SDS011;57135;51.992;4.476;2023-08-07T06:24:18;4.66;;;3.71;;
69837;SDS011;57135;51.992;4.476;2023-08-07T06:26:43;4.42;;;3.49;;
69837;SDS011;57135;51.992;4.476;2023-08-07T06:29:08;5.04;;;3.95;;
69837;SDS011;57135;51.992;4.476;2023-08-07T06:31:34;5.25;;;4.06;;
69837;SDS011;57135;51.992;4.476;2023-08-07T06:33:59;4.87;;;3.69;;
69837;SDS011;57135;51.992;4.476;2023-08-07T06:36:25;4.92;;;3.76;;
69837;SDS011;57135;51.992;4.476;2023-08-07T06:38:51;4.85;;;3.87;;
69837;SDS011;57135;51.992;4.476;2023-08-07T06:41:17;4.40;;;3.58;;
69837;SDS011;57135;51.992;4.476;2023-08-07T06:43:42;4.19;;;3.42;;
69837;SDS011;57135;51.992;4.476;2023-08-07T06:46:08;3.93;;;3.22;;
69837;SDS011;57135;51.992;4.476;2023-08-07T06:48:33;4.61;;;3.65;;
69837;SDS011;57135;51.992;4.476;2023-08-07T06:50:59;4.10;;;3.34;;
69837;SDS011;57135;51.992;4.476;2023-08-07T06:53:24;3.75;;;3.13;;
69837;SDS011;57135;51.992;4.476;2023-08-07T06:55:50;4.37;;;3.55;;
69837;SDS011;57135;51.992;4.476;2023-08-07T06:58:16;4.65;;;3.71;;
69837;SDS011;57135;51.992;4.476;2023-08-07T07:00:42;4.78;;;3.78;;
69837;SDS011;57135;51.992;4.476;2023-08-07T07:03:07;4.69;;;3.68;;
69837;SDS011;57135;51.992;4.476;2023-08-07T07:05:34;4.84;;;3.77;;
69837;SDS011;57135;51.992;4.476;2023-08-07T07:08:00;5.15;;;4.00;;
69837;SDS011;57135;51.992;4.476;2023-08-07T07:10:26;4.85;;;3.82;;
69837;SDS011;57135;51.992;4.476;2023-08-07T07:12:51;4.23;;;3.37;;
69837;SDS011;57135;51.992;4.476;2023-08-07T07:15:17;3.68;;;3.04;;
69837;SDS011;57135;51.992;4.476;2023-08-07T07:17:43;3.63;;;3.01;;
69837;SDS011;57135;51.992;4.476;2023-08-07T07:20:11;3.68;;;3.10;;
69837;SDS011;57135;51.992;4.476;2023-08-07T07:22:37;3.55;;;2.97;;
69837;SDS011;57135;51.992;4.476;2023-08-07T07:25:03;4.14;;;3.42;;
69837;SDS011;57135;51.992;4.476;2023-08-07T07:27:29;3.97;;;3.38;;
69837;SDS011;57135;51.992;4.476;2023-08-07T07:29:54;3.71;;;3.24;;
69837;SDS011;57135;51.992;4.476;2023-08-07T07:32:20;3.85;;;3.36;;
69837;SDS011;57135;51.992;4.476;2023-08-07T07:34:45;3.93;;;3.31;;
69837;SDS011;57135;51.992;4.476;2023-08-07T07:37:11;3.80;;;3.19;;
69837;SDS011;57135;51.992;4.476;2023-08-07T07:39:39;3.93;;;3.32;;
69837;SDS011;57135;51.992;4.476;2023-08-07T07:42:04;3.84;;;3.24;;
69837;SDS011;57135;51.992;4.476;2023-08-07T07:44:30;3.89;;;3.31;;
69837;SDS011;57135;51.992;4.476;2023-08-07T07:46:56;3.70;;;3.09;;
69837;SDS011;57135;51.992;4.476;2023-08-07T07:49:22;3.53;;;2.97;;
69837;SDS011;57135;51.992;4.476;2023-08-07T07:51:48;3.15;;;2.71;;
69837;SDS011;57135;51.992;4.476;2023-08-07T07:54:14;3.21;;;2.76;;
69837;SDS011;57135;51.992;4.476;2023-08-07T07:56:40;3.75;;;3.17;;
69837;SDS011;57135;51.992;4.476;2023-08-07T07:59:08;3.56;;;3.03;;
69837;SDS011;57135;51.992;4.476;2023-08-07T08:01:33;3.39;;;2.94;;
69837;SDS011;57135;51.992;4.476;2023-08-07T08:03:59;3.19;;;2.78;;
69837;SDS011;57135;51.992;4.476;2023-08-07T08:06:25;3.40;;;2.94;;
69837;SDS011;57135;51.992;4.476;2023-08-07T08:08:50;3.32;;;2.77;;
69837;SDS011;57135;51.992;4.476;2023-08-07T08:11:16;3.39;;;2.81;;
69837;SDS011;57135;51.992;4.476;2023-08-07T08:13:41;3.15;;;2.61;;
69837;SDS011;57135;51.992;4.476;2023-08-07T08:16:07;2.96;;;2.51;;
69837;SDS011;57135;51.992;4.476;2023-08-07T08:18:32;3.10;;;2.65;;
69837;SDS011;57135;51.992;4.476;2023-08-07T08:20:58;3.32;;;2.79;;
69837;SDS011;57135;51.992;4.476;2023-08-07T08:23:23;3.72;;;3.09;;
69837;SDS011;57135;51.992;4.476;2023-08-07T08:25:49;3.39;;;2.82;;
69837;SDS011;57135;51.992;4.476;2023-08-07T08:28:14;3.27;;;2.75;;
69837;SDS011;57135;51.992;4.476;2023-08-07T08:30:41;3.53;;;2.91;;
69837;SDS011;57135;51.992;4.476;2023-08-07T08:33:06;3.31;;;2.72;;
69837;SDS011;57135;51.992;4.476;2023-08-07T08:35:37;3.26;;;2.70;;
69837;SDS011;57135;51.992;4.476;2023-08-07T08:38:03;3.41;;;2.83;;
69837;SDS011;57135;51.992;4.476;2023-08-07T08:40:28;3.11;;;2.69;;
69837;SDS011;57135;51.992;4.476;2023-08-07T08:42:55;2.78;;;2.44;;
69837;SDS011;57135;51.992;4.476;2023-08-07T08:45:25;2.93;;;2.53;;
69837;SDS011;57135;51.992;4.476;2023-08-07T08:47:54;2.63;;;2.32;;
69837;SDS011;57135;51.992;4.476;2023-08-07T08:50:24;2.77;;;2.44;;
69837;SDS011;57135;51.992;4.476;2023-08-07T08:52:51;2.62;;;2.30;;
69837;SDS011;57135;51.992;4.476;2023-08-07T08:55:19;2.49;;;2.20;;
69837;SDS011;57135;51.992;4.476;2023-08-07T08:57:46;2.73;;;2.45;;
69837;SDS011;57135;51.992;4.476;2023-08-07T09:00:11;2.72;;;2.41;;
69837;SDS011;57135;51.992;4.476;2023-08-07T09:02:43;2.70;;;2.39;;
69837;SDS011;57135;51.992;4.476;2023-08-07T09:05:10;2.82;;;2.56;;
69837;SDS011;57135;51.992;4.476;2023-08-07T09:07:35;2.96;;;2.68;;
69837;SDS011;57135;51.992;4.476;2023-08-07T09:10:01;3.00;;;2.65;;
69837;SDS011;57135;51.992;4.476;2023-08-07T09:12:29;2.84;;;2.51;;
69837;SDS011;57135;51.992;4.476;2023-08-07T09:14:57;2.79;;;2.50;;
69837;SDS011;57135;51.992;4.476;2023-08-07T09:17:33;2.83;;;2.54;;
69837;SDS011;57135;51.992;4.476;2023-08-07T09:20:05;3.38;;;2.93;;
69837;SDS011;57135;51.992;4.476;2023-08-07T09:22:35;3.25;;;2.78;;
69837;SDS011;57135;51.992;4.476;2023-08-07T09:25:01;3.06;;;2.61;;
69837;SDS011;57135;51.992;4.476;2023-08-07T09:27:30;3.06;;;2.65;;
69837;SDS011;57135;51.992;4.476;2023-08-07T09:29:56;3.12;;;2.69;;
69837;SDS011;57135;51.992;4.476;2023-08-07T09:32:23;2.95;;;2.56;;
69837;SDS011;57135;51.992;4.476;2023-08-07T09:34:50;2.94;;;2.61;;
69837;SDS011;57135;51.992;4.476;2023-08-07T09:37:17;2.85;;;2.54;;
69837;SDS011;57135;51.992;4.476;2023-08-07T09:39:42;2.81;;;2.50;;
69837;SDS011;57135;51.992;4.476;2023-08-07T09:42:14;2.84;;;2.53;;
69837;SDS011;57135;51.992;4.476;2023-08-07T09:44:40;2.44;;;2.22;;
69837;SDS011;57135;51.992;4.476;2023-08-07T09:47:13;2.40;;;2.21;;
69837;SDS011;57135;51.992;4.476;2023-08-07T09:49:39;2.32;;;2.12;;
69837;SDS011;57135;51.992;4.476;2023-08-07T09:52:06;2.53;;;2.32;;
69837;SDS011;57135;51.992;4.476;2023-08-07T09:54:34;2.73;;;2.48;;
69837;SDS011;57135;51.992;4.476;2023-08-07T09:57:00;2.51;;;2.28;;
69837;SDS011;57135;51.992;4.476;2023-08-07T09:59:27;2.67;;;2.40;;
69837;SDS011;57135;51.992;4.476;2023-08-07T10:01:54;2.67;;;2.36;;
69837;SDS011;57135;51.992;4.476;2023-08-07T10:04:21;3.01;;;2.62;;
69837;SDS011;57135;51.992;4.476;2023-08-07T10:06:46;2.71;;;2.35;;
69837;SDS011;57135;51.992;4.476;2023-08-07T10:09:12;2.73;;;2.40;;
69837;SDS011;57135;51.992;4.476;2023-08-07T10:11:38;3.06;;;2.64;;
69837;SDS011;57135;51.992;4.476;2023-08-07T10:14:05;2.81;;;2.43;;
69837;SDS011;57135;51.992;4.476;2023-08-07T10:16:30;3.31;;;2.87;;
69837;SDS011;57135;51.992;4.476;2023-08-07T10:18:55;2.90;;;2.50;;
69837;SDS011;57135;51.992;4.476;2023-08-07T10:21:21;2.69;;;2.36;;
69837;SDS011;57135;51.992;4.476;2023-08-07T10:23:49;2.40;;;2.15;;
69837;SDS011;57135;51.992;4.476;2023-08-07T10:26:18;2.70;;;2.38;;
69837;SDS011;57135;51.992;4.476;2023-08-07T10:28:47;2.59;;;2.30;;
69837;SDS011;57135;51.992;4.476;2023-08-07T10:31:15;2.87;;;2.56;;
69837;SDS011;57135;51.992;4.476;2023-08-07T10:33:42;3.51;;;3.24;;
69837;SDS011;57135;51.992;4.476;2023-08-07T10:36:09;2.72;;;2.51;;
69837;SDS011;57135;51.992;4.476;2023-08-07T10:38:35;2.38;;;2.15;;
69837;SDS011;57135;51.992;4.476;2023-08-07T10:43:28;2.40;;;2.15;;
69837;SDS011;57135;51.992;4.476;2023-08-07T10:46:04;2.58;;;2.30;;
69837;SDS011;57135;51.992;4.476;2023-08-07T10:48:56;3.05;;;2.62;;
69837;SDS011;57135;51.992;4.476;2023-08-07T10:51:23;2.66;;;2.28;;
69837;SDS011;57135;51.992;4.476;2023-08-07T10:53:55;2.76;;;2.42;;
69837;SDS011;57135;51.992;4.476;2023-08-07T10:56:31;2.91;;;2.56;;
69837;SDS011;57135;51.992;4.476;2023-08-07T10:59:07;2.72;;;2.42;;
69837;SDS011;57135;51.992;4.476;2023-08-07T11:04:00;2.80;;;2.50;;
69837;SDS011;57135;51.992;4.476;2023-08-07T11:06:32;2.67;;;2.39;;
69837;SDS011;57135;51.992;4.476;2023-08-07T11:08:59;2.47;;;2.24;;
69837;SDS011;57135;51.992;4.476;2023-08-07T11:11:29;2.43;;;2.21;;
69837;SDS011;57135;51.992;4.476;2023-08-07T11:13:55;2.28;;;2.06;;
69837;SDS011;57135;51.992;4.476;2023-08-07T11:16:20;2.10;;;1.92;;
69837;SDS011;57135;51.992;4.476;2023-08-07T11:18:47;2.34;;;2.15;;
69837;SDS011;57135;51.992;4.476;2023-08-07T11:21:13;2.48;;;2.26;;
69837;SDS011;57135;51.992;4.476;2023-08-07T11:23:39;2.42;;;2.20;;
69837;SDS011;57135;51.992;4.476;2023-08-07T11:26:06;2.74;;;2.49;;
69837;SDS011;57135;51.992;4.476;2023-08-07T11:28:33;2.65;;;2.42;;
69837;SDS011;57135;51.992;4.476;2023-08-07T11:30:59;2.66;;;2.48;;
69837;SDS011;57135;51.992;4.476;2023-08-07T11:33:25;2.73;;;2.57;;
69837;SDS011;57135;51.992;4.476;2023-08-07T11:35:52;2.50;;;2.37;;
69837;SDS011;57135;51.992;4.476;2023-08-07T11:38:32;2.67;;;2.49;;
69837;SDS011;57135;51.992;4.476;2023-08-07T11:41:08;2.90;;;2.74;;
69837;SDS011;57135;51.992;4.476;2023-08-07T11:43:35;2.97;;;2.79;;
69837;SDS011;57135;51.992;4.476;2023-08-07T11:46:03;3.09;;;2.89;;
69837;SDS011;57135;51.992;4.476;2023-08-07T11:48:30;3.31;;;3.06;;
69837;SDS011;57135;51.992;4.476;2023-08-07T11:50:57;3.38;;;3.08;;
69837;SDS011;57135;51.992;4.476;2023-08-07T11:53:30;3.45;;;3.11;;
69837;SDS011;57135;51.992;4.476;2023-08-07T11:56:07;3.39;;;3.06;;
69837;SDS011;57135;51.992;4.476;2023-08-07T11:58:44;2.81;;;2.68;;
69837;SDS011;57135;51.992;4.476;2023-08-07T12:01:12;2.95;;;2.83;;
69837;SDS011;57135;51.992;4.476;2023-08-07T12:03:52;2.70;;;2.57;;
69837;SDS011;57135;51.992;4.476;2023-08-07T12:06:30;2.85;;;2.73;;
69837;SDS011;57135;51.992;4.476;2023-08-07T12:08:56;3.06;;;2.93;;
69837;SDS011;57135;51.992;4.476;2023-08-07T12:11:22;2.87;;;2.76;;
69837;SDS011;57135;51.992;4.476;2023-08-07T12:13:48;3.28;;;3.12;;
69837;SDS011;57135;51.992;4.476;2023-08-07T12:16:15;3.11;;;2.97;;
69837;SDS011;57135;51.992;4.476;2023-08-07T12:18:47;3.21;;;3.10;;
69837;SDS011;57135;51.992;4.476;2023-08-07T12:21:19;3.45;;;3.31;;
69837;SDS011;57135;51.992;4.476;2023-08-07T12:23:48;3.11;;;3.00;;
69837;SDS011;57135;51.992;4.476;2023-08-07T12:26:15;3.43;;;3.31;;
69837;SDS011;57135;51.992;4.476;2023-08-07T12:28:41;3.18;;;3.02;;
69837;SDS011;57135;51.992;4.476;2023-08-07T12:31:07;3.42;;;3.29;;
69837;SDS011;57135;51.992;4.476;2023-08-07T12:33:33;3.60;;;3.49;;
69837;SDS011;57135;51.992;4.476;2023-08-07T12:35:59;3.72;;;3.64;;
69837;SDS011;57135;51.992;4.476;2023-08-07T12:38:25;3.39;;;3.30;;
69837;SDS011;57135;51.992;4.476;2023-08-07T12:40:52;3.37;;;3.29;;
69837;SDS011;57135;51.992;4.476;2023-08-07T12:43:18;3.31;;;3.21;;
69837;SDS011;57135;51.992;4.476;2023-08-07T12:45:44;3.35;;;3.27;;
69837;SDS011;57135;51.992;4.476;2023-08-07T12:48:09;3.05;;;2.97;;
69837;SDS011;57135;51.992;4.476;2023-08-07T12:50:35;3.39;;;3.33;;
69837;SDS011;57135;51.992;4.476;2023-08-07T12:53:01;3.45;;;3.38;;
69837;SDS011;57135;51.992;4.476;2023-08-07T12:55:27;3.66;;;3.50;;
69837;SDS011;57135;51.992;4.476;2023-08-07T12:57:53;4.04;;;3.75;;
69837;SDS011;57135;51.992;4.476;2023-08-07T13:00:19;4.14;;;3.87;;
69837;SDS011;57135;51.992;4.476;2023-08-07T13:02:45;4.16;;;3.91;;
69837;SDS011;57135;51.992;4.476;2023-08-07T13:05:12;4.00;;;3.78;;
69837;SDS011;57135;51.992;4.476;2023-08-07T13:07:40;4.19;;;4.06;;
69837;SDS011;57135;51.992;4.476;2023-08-07T13:10:06;3.92;;;3.84;;
69837;SDS011;57135;51.992;4.476;2023-08-07T13:12:34;4.17;;;4.11;;
69837;SDS011;57135;51.992;4.476;2023-08-07T13:15:01;4.27;;;4.20;;
69837;SDS011;57135;51.992;4.476;2023-08-07T13:17:31;3.86;;;3.78;;
69837;SDS011;57135;51.992;4.476;2023-08-07T13:19:57;3.67;;;3.57;;
69837;SDS011;57135;51.992;4.476;2023-08-07T13:22:23;3.98;;;3.83;;
69837;SDS011;57135;51.992;4.476;2023-08-07T13:24:48;3.72;;;3.61;;
69837;SDS011;57135;51.992;4.476;2023-08-07T13:27:14;3.90;;;3.82;;
69837;SDS011;57135;51.992;4.476;2023-08-07T13:29:39;3.62;;;3.54;;
69837;SDS011;57135;51.992;4.476;2023-08-07T13:32:05;3.43;;;3.36;;
69837;SDS011;57135;51.992;4.476;2023-08-07T13:34:37;3.35;;;3.31;;
69837;SDS011;57135;51.992;4.476;2023-08-07T13:37:06;3.48;;;3.43;;
69837;SDS011;57135;51.992;4.476;2023-08-07T13:39:32;3.40;;;3.37;;
69837;SDS011;57135;51.992;4.476;2023-08-07T13:41:58;3.36;;;3.34;;
69837;SDS011;57135;51.992;4.476;2023-08-07T13:44:25;3.19;;;3.14;;
69837;SDS011;57135;51.992;4.476;2023-08-07T13:46:50;2.95;;;2.94;;
69837;SDS011;57135;51.992;4.476;2023-08-07T13:49:16;2.95;;;2.91;;
69837;SDS011;57135;51.992;4.476;2023-08-07T13:51:42;2.72;;;2.69;;
69837;SDS011;57135;51.992;4.476;2023-08-07T13:54:07;3.13;;;3.11;;
69837;SDS011;57135;51.992;4.476;2023-08-07T13:56:35;2.80;;;2.79;;
69837;SDS011;57135;51.992;4.476;2023-08-07T13:59:01;2.70;;;2.69;;
69837;SDS011;57135;51.992;4.476;2023-08-07T14:01:26;2.46;;;2.45;;
69837;SDS011;57135;51.992;4.476;2023-08-07T14:03:53;2.49;;;2.48;;
69837;SDS011;57135;51.992;4.476;2023-08-07T14:06:18;3.04;;;3.02;;
69837;SDS011;57135;51.992;4.476;2023-08-07T14:08:44;3.06;;;3.05;;
69837;SDS011;57135;51.992;4.476;2023-08-07T14:11:09;2.79;;;2.79;;
69837;SDS011;57135;51.992;4.476;2023-08-07T14:13:36;2.71;;;2.70;;
69837;SDS011;57135;51.992;4.476;2023-08-07T14:16:02;2.67;;;2.66;;
69837;SDS011;57135;51.992;4.476;2023-08-07T14:18:28;2.76;;;2.75;;
69837;SDS011;57135;51.992;4.476;2023-08-07T14:20:53;2.77;;;2.74;;
69837;SDS011;57135;51.992;4.476;2023-08-07T14:23:18;2.63;;;2.62;;
69837;SDS011;57135;51.992;4.476;2023-08-07T14:25:44;2.60;;;2.58;;
69837;SDS011;57135;51.992;4.476;2023-08-07T14:28:10;2.73;;;2.72;;
69837;SDS011;57135;51.992;4.476;2023-08-07T14:30:36;2.75;;;2.75;;
69837;SDS011;57135;51.992;4.476;2023-08-07T14:33:01;2.64;;;2.62;;
69837;SDS011;57135;51.992;4.476;2023-08-07T14:35:27;2.79;;;2.78;;
69837;SDS011;57135;51.992;4.476;2023-08-07T14:37:52;2.97;;;2.96;;
69837;SDS011;57135;51.992;4.476;2023-08-07T14:40:18;2.72;;;2.72;;
69837;SDS011;57135;51.992;4.476;2023-08-07T14:42:43;2.65;;;2.64;;
69837;SDS011;57135;51.992;4.476;2023-08-07T14:45:09;2.37;;;2.37;;
69837;SDS011;57135;51.992;4.476;2023-08-07T14:47:35;2.53;;;2.53;;
69837;SDS011;57135;51.992;4.476;2023-08-07T14:50:00;2.54;;;2.54;;
69837;SDS011;57135;51.992;4.476;2023-08-07T14:52:25;2.27;;;2.27;;
69837;SDS011;57135;51.992;4.476;2023-08-07T14:54:51;2.45;;;2.45;;
69837;SDS011;57135;51.992;4.476;2023-08-07T14:57:18;2.54;;;2.54;;